Latest Weather Observations for Hobart Airport

IDT60901

Issued at 12:01 pm EDT Tuesday 28 February 2017 (issued every 10 minutes, with the page automatically refreshed every 10 minutes)

About weather observations | Map of Hobart area stations | Latest observations for Hobart area | Other Formats
Station Details ID: 094008 Name: HOBART AIRPORT Lat: -42.83 Lon: 147.50 Height: 4.0 m
Data from the previous 72 hours. | See also: Recent months at Hobart Airport
Date/Time
EDT
Temp
°C
App
Temp
°C
Dew
Point
°C
Rel
Hum
%
Delta-T
°C
Wind Press
QNH
hPa
Press
MSL
hPa
Rain since
9am
mm
Dir  Spd
km/h
Gust
km/h
Spd
kts
Gust
kts
28/11:30am 22.9 20.0 8.3 39 7.7 NW 13 19 7 10 1023.0 1023.0 0.0
28/11:00am 22.3 18.3 8.4 41 7.3 NNW 19 26 10 14 1023.1 1023.1 0.0
28/10:30am 21.2 17.9 9.4 47 6.3 NW 17 22 9 12 1023.2 1023.2 0.0
28/10:00am 20.4 16.6 9.0 48 6.0 NNW 19 28 10 15 1023.3 1023.3 0.0
28/09:30am 19.3 16.0 9.7 53 5.1 NNW 17 26 9 14 1023.4 1023.4 0.0
28/09:00am 18.6 15.0 9.9 57 4.6 N 19 26 10 14 1023.5 1023.5 0.0
28/08:30am 17.4 14.3 10.2 62 3.8 N 17 26 9 14 1023.6 1023.6 0.0
28/08:00am 15.5 13.0 11.0 74 2.4 NNW 15 22 8 12 1023.7 1023.7 0.0
28/07:30am 14.5 12.4 11.1 80 1.8 NNW 13 17 7 9 1023.6 1023.6 0.0
28/07:00am 13.9 11.7 10.8 81 1.6 NW 13 15 7 8 1023.6 1023.6 0.0
28/06:30am 14.3 12.1 10.9 80 1.8 NNW 13 17 7 9 1023.3 1023.3 0.0
28/06:00am 14.4 12.3 11.0 80 1.8 NW 13 22 7 12 1023.2 1023.2 0.0
28/05:30am 14.8 12.7 11.0 78 2.0 NW 13 17 7 9 1023.1 1023.1 0.0
28/05:00am 15.1 13.0 11.1 77 2.1 NNW 13 19 7 10 1023.1 1023.1 0.0
28/04:30am 15.4 13.7 11.1 75 2.3 NW 11 15 6 8 1023.2 1023.2 0.0
28/04:00am 16.1 14.3 10.8 71 2.8 N 11 15 6 8 1023.4 1023.4 0.0
28/03:30am 16.5 14.0 10.9 69 3.0 N 15 19 8 10 1023.5 1023.5 0.0
28/03:00am 16.7 13.5 11.1 69 3.0 N 19 28 10 15 1023.6 1023.6 0.0
28/02:30am 17.4 15.0 11.3 67 3.3 N 15 24 8 13 1023.7 1023.7 0.0
28/02:00am 17.2 14.4 11.5 69 3.1 N 17 24 9 13 1023.8 1023.8 0.0
28/01:30am 18.3 15.2 11.5 64 3.7 NNW 19 28 10 15 1023.8 1023.8 0.0
28/01:00am 18.5 15.7 11.3 63 3.9 N 17 22 9 12 1023.6 1023.6 0.0
28/12:30am 18.8 15.5 11.5 62 4.0 N 20 30 11 16 1023.6 1023.6 0.0
28/12:00am 18.8 16.7 11.0 60 4.2 NNW 13 20 7 11 1023.6 1023.6 0.0
 
Date/Time
EDT
Temp
°C
App
Temp
°C
Dew
Point
°C
Rel
Hum
%
Delta-T
°C
Wind Press
QNH
hPa
Press
MSL
hPa
Rain since
9am
mm
Dir  Spd
km/h
Gust
km/h
Spd
kts
Gust
kts
27/11:30pm 18.5 16.9 11.5 63 3.8 NNW 11 15 6 8 1023.6 1023.6 0.0
27/11:00pm 18.4 17.2 11.6 64 3.7 NNE 9 15 5 8 1023.6 1023.6 0.0
27/10:30pm 19.4 18.3 11.8 61 4.2 NNE 9 11 5 6 1023.5 1023.5 0.0
27/10:00pm 18.9 17.6 12.4 66 3.6 N 11 13 6 7 1023.6 1023.6 0.0
27/09:30pm 19.6 17.9 12.6 64 3.9 NNE 13 20 7 11 1023.4 1023.4 0.0
27/09:00pm 20.1 17.3 12.6 62 4.2 NNE 19 26 10 14 1023.1 1023.1 0.0
27/08:30pm 21.0 18.9 12.5 58 4.8 NNE 15 20 8 11 1022.9 1022.9 0.0
27/08:00pm 21.5 20.0 13.1 58 4.8 NNE 13 17 7 9 1022.8 1022.8 0.0
27/07:30pm 22.6 20.2 12.6 53 5.7 NE 17 22 9 12 1022.4 1022.4 0.0
27/07:00pm 23.9 20.9 12.7 49 6.4 NE 20 26 11 14 1022.3 1022.3 0.0
27/06:30pm 24.9 21.0 12.1 44 7.3 NE 24 32 13 17 1022.1 1022.1 0.0
27/06:00pm 25.5 21.9 12.0 43 7.7 NE 22 32 12 17 1022.1 1022.1 0.0
27/05:30pm 25.7 21.9 12.3 43 7.7 NE 24 33 13 18 1022.1 1022.1 0.0
27/05:00pm 26.6 22.2 10.5 36 9.0 NE 24 32 13 17 1022.3 1022.3 0.0
27/04:30pm 27.0 22.3 9.1 32 9.8 NE 24 33 13 18 1022.5 1022.5 0.0
27/04:00pm 27.9 23.1 5.4 24 11.6 NE 20 28 11 15 1022.6 1022.6 0.0
27/03:30pm 27.1 22.5 5.8 25 11.1 NNE 19 28 10 15 1022.9 1022.9 0.0
27/03:00pm 26.4 22.2 5.8 26 10.6 NNE 17 28 9 15 1023.2 1023.2 0.0
27/02:30pm 26.4 22.7 6.4 28 10.4 NNE 15 19 8 10 1023.7 1023.7 0.0
27/02:00pm 25.5 22.2 4.5 26 10.5 ENE 11 19 6 10 1024.0 1024.0 0.0
27/01:30pm 24.9 22.8 8.2 34 8.9 NE 9 15 5 8 1024.4 1024.4 0.0
27/01:00pm 24.7 22.2 6.4 31 9.4 NE 9 15 5 8 1024.8 1024.8 0.0
27/12:30pm 24.2 21.6 7.6 34 8.7 NE 11 15 6 8 1025.1 1025.1 0.0
27/12:00pm 23.1 20.5 7.8 37 8.0 NNE 11 15 6 8 1025.5 1025.5 0.0
27/11:30am 21.8 18.8 7.7 40 7.3 NE 13 19 7 10 1025.8 1025.8 0.0
27/11:00am 21.4 17.5 7.1 39 7.3 NE 17 22 9 12 1026.2 1026.2 0.0
27/10:30am 20.8 16.7 7.8 43 6.7 NNE 19 26 10 14 1026.4 1026.4 0.0
27/10:00am 19.5 16.4 8.7 49 5.6 NNW 15 20 8 11 1026.6 1026.6 0.0
27/09:30am 17.7 15.8 9.0 56 4.5 NNW 9 15 5 8 1026.7 1026.7 0.0
27/09:00am 16.4 14.1 9.0 61 3.8 NNE 11 13 6 7 1026.8 1026.8 0.0
27/08:30am 15.3 13.3 8.8 65 3.3 NNE 9 11 5 6 1026.9 1026.9 0.0
27/08:00am 12.6 11.2 9.4 81 1.6 WNW 7 9 4 5 1026.9 1026.9 0.0
27/07:30am 11.6 10.1 9.0 84 1.3 W 7 9 4 5 1026.8 1026.8 0.0
27/07:00am 11.2 10.4 8.3 82 1.4 NE 2 11 1 6 1026.4 1026.4 0.0
27/06:30am 11.1 9.1 8.7 85 1.2 WNW 9 15 5 8 1026.2 1026.2 0.0
27/06:00am 11.2 8.9 9.0 86 1.1 W 11 13 6 7 1026.0 1026.0 0.0
27/05:30am 12.3 9.5 8.7 79 1.8 NW 13 15 7 8 1025.7 1025.7 0.0
27/05:00am 12.3 9.2 8.7 79 1.8 NW 15 17 8 9 1025.7 1025.7 0.0
27/04:30am 11.8 10.0 9.6 86 1.1 NNW 9 13 5 7 1025.7 1025.7 0.0
27/04:00am 11.9 9.9 10.1 89 0.9 WNW 11 13 6 7 1025.7 1025.7 0.0
27/03:30am 12.1 11.2 10.5 90 0.8 NW 6 9 3 5 1025.7 1025.7 0.0
27/03:00am 12.4 11.4 10.9 90 0.8 NNE 7 7 4 4 1025.6 1025.6 0.0
27/02:30am 12.5 10.4 11.0 90 0.8 WNW 13 15 7 8 1025.6 1025.6 0.0
27/02:00am 12.8 11.1 11.3 91 0.8 NW 11 13 6 7 1025.7 1025.7 0.0
27/01:30am 12.7 12.3 11.0 89 0.9 NW 4 7 2 4 1025.8 1025.8 0.0
27/01:00am 12.2 12.1 10.8 91 0.7 WNW 2 7 1 4 1025.7 1025.7 0.0
27/12:30am 13.2 13.5 10.9 86 1.2 CALM 0 0 0 0 1025.9 1025.9 0.0
27/12:00am 13.8 14.2 11.3 85 1.3 CALM 0 0 0 0 1026.0 1026.0 0.0
 
Date/Time
EDT
Temp
°C
App
Temp
°C
Dew
Point
°C
Rel
Hum
%
Delta-T
°C
Wind Press
QNH
hPa
Press
MSL
hPa
Rain since
9am
mm
Dir  Spd
km/h
Gust
km/h
Spd
kts
Gust
kts
26/11:30pm 14.8 15.4 11.8 82 1.6 CALM 0 6 0 3 1026.1 1026.1 0.0
26/11:00pm 15.6 14.2 12.3 81 1.8 SSW 11 15 6 8 1026.1 1026.1 0.0
26/10:30pm 15.9 14.1 12.2 78 2.0 SSW 13 19 7 10 1026.1 1026.1 0.0
26/10:00pm 16.2 14.5 12.4 78 2.1 SSW 13 17 7 9 1026.1 1026.1 0.0
26/09:30pm 16.5 14.7 12.1 75 2.4 SSW 13 17 7 9 1025.8 1025.8 0.0
26/09:00pm 17.0 15.0 11.4 69 3.0 SSW 13 17 7 9 1025.5 1025.5 0.0
26/08:30pm 17.6 15.9 11.1 65 3.5 S 11 15 6 8 1025.3 1025.3 0.0
26/08:00pm 18.4 17.1 11.2 63 3.9 SE 9 11 5 6 1025.0 1025.0 0.0
26/07:30pm 19.6 17.4 10.9 57 4.7 SE 13 17 7 9 1024.8 1024.8 0.0
26/07:00pm 20.0 16.5 10.8 55 5.0 SSE 20 24 11 13 1024.4 1024.4 0.0
26/06:30pm 20.9 17.7 10.1 50 5.8 SE 17 22 9 12 1024.1 1024.1 0.0
26/06:00pm 21.1 17.7 11.3 53 5.4 SE 20 26 11 14 1023.7 1023.7 0.0
26/05:30pm 20.3 15.6 10.5 53 5.3 SE 26 33 14 18 1023.5 1023.5 0.0
26/05:00pm 21.7 16.4 9.8 46 6.4 SE 28 33 15 18 1023.6 1023.6 0.0
26/04:30pm 21.7 17.1 9.6 46 6.5 SSE 24 30 13 16 1023.7 1023.7 0.0
26/04:00pm 22.1 18.0 8.7 42 7.1 SE 20 30 11 16 1023.8 1023.8 0.0
26/03:30pm 22.7 18.9 9.7 43 7.0 SE 20 32 11 17 1024.0 1024.0 0.0
26/03:00pm 22.5 17.5 8.2 40 7.5 SE 24 33 13 18 1024.1 1024.1 0.0
26/02:30pm 22.2 17.9 7.0 37 7.8 ESE 19 28 10 15 1024.3 1024.3 0.0
26/02:00pm 21.5 16.7 7.3 40 7.3 SE 22 30 12 16 1024.5 1024.5 0.0
26/01:30pm 21.2 18.7 8.4 43 6.7 SE 11 20 6 11 1024.7 1024.7 0.0
26/01:00pm 22.1 18.7 6.0 35 8.1 W 13 19 7 10 1025.1 1025.1 0.0
26/12:30pm 21.6 17.8 5.7 35 8.0 NW 15 24 8 13 1025.4 1025.4 0.0
26/12:00pm 20.1 16.4 6.5 41 6.8 NNW 15 22 8 12 1025.6 1025.6 0.0
26/11:30am 19.5 15.4 6.4 42 6.5 NNW 17 24 9 13 1025.7 1025.7 0.0
26/11:00am 18.8 15.5 6.5 44 6.1 NW 13 19 7 10 1026.0 1026.0 0.0
26/10:30am 17.4 13.8 6.6 49 5.3 NNW 15 19 8 10 1026.3 1026.3 0.0
26/10:00am 16.4 12.0 6.6 52 4.8 NW 19 26 10 14 1026.5 1026.5 0.0
26/09:30am 15.4 11.4 6.8 56 4.2 NW 17 24 9 13 1026.4 1026.4 0.0
26/09:00am 14.2 10.5 6.5 60 3.7 NNW 15 22 8 12 1026.3 1026.3 0.0
26/08:30am 12.4 8.7 6.5 67 2.8 NW 15 22 8 12 1026.3 1026.3 0.0
26/08:00am 11.8 8.1 6.5 70 2.5 NNW 15 20 8 11 1026.2 1026.2 0.0
26/07:30am 10.5 7.6 6.7 77 1.8 NNW 11 15 6 8 1025.9 1025.9 0.0
26/07:00am 9.4 6.9 6.6 83 1.3 WNW 9 11 5 6 1025.7 1025.7 0.0
26/06:30am 9.6 5.9 6.3 80 1.5 NNW 15 19 8 10 1025.3 1025.3 0.0
26/06:00am 9.7 5.8 6.9 83 1.3 NW 17 19 9 10 1025.2 1025.2 0.0
26/05:30am 8.9 5.0 7.0 88 0.9 NNW 17 20 9 11 1025.3 1025.3 0.0
26/05:00am 9.2 5.2 6.6 84 1.2 WNW 17 22 9 12 1025.0 1025.0 0.0
26/04:30am 9.4 5.7 6.1 80 1.5 NW 15 19 8 10 1024.9 1024.9 0.0
26/04:00am 9.2 4.8 6.4 83 1.3 NW 19 26 10 14 1025.4 1025.4 0.0
26/03:30am 9.4 6.1 6.6 83 1.3 NW 13 17 7 9 1025.4 1025.4 0.0
26/03:00am 9.5 6.3 6.7 83 1.3 NNW 13 19 7 10 1025.6 1025.6 0.0
26/02:30am 10.2 6.2 6.5 78 1.7 NW 17 19 9 10 1026.2 1026.2 0.0
26/02:00am 9.9 7.1 6.9 81 1.4 NW 11 13 6 7 1026.3 1026.3 0.0
26/01:30am 10.8 7.7 7.4 79 1.6 NW 13 15 7 8 1026.4 1026.4 0.0
26/01:00am 10.0 7.8 6.3 78 1.7 NW 7 9 4 5 1026.6 1026.6 0.0
26/12:30am 10.2 9.2 5.8 74 2.0 CALM 0 0 0 0 1026.9 1026.9 0.0
26/12:00am 11.4 10.4 5.8 68 2.6 CALM 0 0 0 0 1027.0 1027.0 0.0
 
Date/Time
EDT
Temp
°C
App
Temp
°C
Dew
Point
°C
Rel
Hum
%
Delta-T
°C
Wind Press
QNH
hPa
Press
MSL
hPa
Rain since
9am
mm
Dir  Spd
km/h
Gust
km/h
Spd
kts
Gust
kts
25/11:30pm 12.1 10.1 7.1 71 2.4 ENE 7 7 4 4 1027.1 1027.1 0.0
25/11:00pm 13.4 11.5 6.7 64 3.2 ESE 6 7 3 4 1027.2 1027.2 0.0
25/10:30pm 14.0 11.9 6.5 60 3.6 ESE 7 11 4 6 1027.6 1027.6 0.0
25/10:00pm 14.1 12.0 6.8 61 3.5 E 7 11 4 6 1027.7 1027.7 0.0
25/09:30pm 14.5 12.1 7.1 61 3.6 ESE 9 15 5 8 1027.6 1027.6 0.0
25/09:00pm 14.8 12.3 6.5 57 4.0 ESE 9 15 5 8 1027.1 1027.1 0.0
25/08:30pm 14.5 11.9 5.9 56 4.1 ESE 9 15 5 8 1026.7 1026.7 0.0
25/08:00pm 14.9 10.8 6.4 57 4.1 SSE 17 20 9 11 1026.4 1026.4 0.0
25/07:30pm 15.0 10.0 6.5 57 4.1 S 22 30 12 16 1026.2 1026.2 0.0
25/07:00pm 15.5 10.0 6.1 53 4.5 SSE 24 32 13 17 1025.9 1025.9 0.0
25/06:30pm 16.1 10.2 5.9 50 4.9 S 26 33 14 18 1025.7 1025.7 0.0
25/06:00pm 16.5 10.2 5.7 49 5.2 SSE 28 33 15 18 1025.4 1025.4 0.0
25/05:30pm 16.4 10.4 5.5 48 5.2 SSE 26 33 14 18 1025.4 1025.4 0.0
25/05:00pm 17.1 11.1 5.1 45 5.7 SSE 26 33 14 18 1025.4 1025.4 0.0
25/04:30pm 17.7 11.7 5.2 43 6.0 SE 26 33 14 18 1025.4 1025.4 0.0
25/04:00pm 17.9 11.6 4.0 39 6.5 SE 26 33 14 18 1025.6 1025.6 0.0
25/03:30pm 18.0 12.2 2.3 35 7.1 SSE 22 30 12 16 1025.6 1025.6 0.0
25/03:00pm 17.1 11.4 3.1 39 6.4 SE 22 30 12 16 1026.0 1026.0 0.0
25/02:30pm 17.6 11.6 3.3 38 6.6 SE 24 30 13 16 1026.5 1026.5 0.0
25/02:00pm 17.2 11.9 2.9 38 6.5 SSE 20 30 11 16 1026.7 1026.7 0.0
25/01:30pm 17.0 11.7 2.9 39 6.4 SE 20 28 11 15 1026.7 1026.7 0.0
25/01:00pm 17.0 11.7 2.9 39 6.4 SE 20 28 11 15 1026.9 1026.9 0.0
25/12:30pm 16.5 12.0 2.1 38 6.4 ESE 15 20 8 11 1026.9 1026.9 0.0

Latest Capital City Observations: Canberra | Sydney | Melbourne | Brisbane | Adelaide | Perth | Hobart | Darwin

Other Formats:

Comma delimited format used in spreadsheet applications
http://www.bom.gov.au/fwo/IDT60901/IDT60901.94975.axf

JavaScript Object Notation format (JSON) in row-major order
http://www.bom.gov.au/fwo/IDT60901/IDT60901.94975.json